sensor_id;sensor_type;location;lat;lon;timestamp;temperature;humidity
44431;DHT22;30135;47.866;-4.222;2022-12-10T00:01:26;3.80;83.10
44431;DHT22;30135;47.866;-4.222;2022-12-10T00:03:53;3.80;83.20
44431;DHT22;30135;47.866;-4.222;2022-12-10T00:06:24;3.70;83.20
44431;DHT22;30135;47.866;-4.222;2022-12-10T00:08:51;3.80;83.30
44431;DHT22;30135;47.866;-4.222;2022-12-10T00:11:19;3.70;83.30
44431;DHT22;30135;47.866;-4.222;2022-12-10T00:13:48;3.70;83.30
44431;DHT22;30135;47.866;-4.222;2022-12-10T00:16:16;3.70;83.40
44431;DHT22;30135;47.866;-4.222;2022-12-10T00:18:44;3.70;83.40
44431;DHT22;30135;47.866;-4.222;2022-12-10T00:21:12;3.70;83.30
44431;DHT22;30135;47.866;-4.222;2022-12-10T00:23:40;3.70;83.20
44431;DHT22;30135;47.866;-4.222;2022-12-10T00:26:12;3.70;83.30
44431;DHT22;30135;47.866;-4.222;2022-12-10T00:29:06;3.60;83.20
44431;DHT22;30135;47.866;-4.222;2022-12-10T00:31:34;3.60;83.30
44431;DHT22;30135;47.866;-4.222;2022-12-10T00:34:03;3.60;83.20
44431;DHT22;30135;47.866;-4.222;2022-12-10T00:36:40;3.60;83.20
44431;DHT22;30135;47.866;-4.222;2022-12-10T00:39:12;3.60;83.10
44431;DHT22;30135;47.866;-4.222;2022-12-10T00:41:40;3.50;83.00
44431;DHT22;30135;47.866;-4.222;2022-12-10T00:44:06;3.50;83.00
44431;DHT22;30135;47.866;-4.222;2022-12-10T00:46:33;3.50;82.90
44431;DHT22;30135;47.866;-4.222;2022-12-10T00:49:00;3.50;82.90
44431;DHT22;30135;47.866;-4.222;2022-12-10T00:52:18;3.40;82.80
44431;DHT22;30135;47.866;-4.222;2022-12-10T00:55:12;3.40;82.80
44431;DHT22;30135;47.866;-4.222;2022-12-10T00:57:38;3.30;82.80
44431;DHT22;30135;47.866;-4.222;2022-12-10T01:00:05;3.30;82.90
44431;DHT22;30135;47.866;-4.222;2022-12-10T01:02:42;3.30;82.90
44431;DHT22;30135;47.866;-4.222;2022-12-10T01:05:47;3.30;83.00
44431;DHT22;30135;47.866;-4.222;2022-12-10T01:08:33;3.30;83.10
44431;DHT22;30135;47.866;-4.222;2022-12-10T01:11:33;3.20;83.00
44431;DHT22;30135;47.866;-4.222;2022-12-10T01:14:08;3.20;83.10
44431;DHT22;30135;47.866;-4.222;2022-12-10T01:16:35;3.20;83.10
44431;DHT22;30135;47.866;-4.222;2022-12-10T01:19:04;3.20;83.10
44431;DHT22;30135;47.866;-4.222;2022-12-10T01:21:31;3.20;83.10
44431;DHT22;30135;47.866;-4.222;2022-12-10T01:24:29;3.10;82.90
44431;DHT22;30135;47.866;-4.222;2022-12-10T01:27:39;3.10;82.80
44431;DHT22;30135;47.866;-4.222;2022-12-10T01:30:06;3.10;82.90
44431;DHT22;30135;47.866;-4.222;2022-12-10T01:32:33;3.10;82.90
44431;DHT22;30135;47.866;-4.222;2022-12-10T01:34:59;3.10;82.90
44431;DHT22;30135;47.866;-4.222;2022-12-10T01:37:51;3.00;82.80
44431;DHT22;30135;47.866;-4.222;2022-12-10T01:40:24;3.10;82.90
44431;DHT22;30135;47.866;-4.222;2022-12-10T01:42:50;3.00;82.80
44431;DHT22;30135;47.866;-4.222;2022-12-10T01:45:17;3.00;82.70
44431;DHT22;30135;47.866;-4.222;2022-12-10T01:47:47;3.00;82.80
44431;DHT22;30135;47.866;-4.222;2022-12-10T01:50:13;3.00;82.90
44431;DHT22;30135;47.866;-4.222;2022-12-10T01:52:39;2.90;82.80
44431;DHT22;30135;47.866;-4.222;2022-12-10T01:55:47;2.90;82.80
44431;DHT22;30135;47.866;-4.222;2022-12-10T01:58:43;2.90;82.80
44431;DHT22;30135;47.866;-4.222;2022-12-10T02:03:56;2.90;82.70
44431;DHT22;30135;47.866;-4.222;2022-12-10T02:06:45;2.80;82.70
44431;DHT22;30135;47.866;-4.222;2022-12-10T02:09:25;2.80;82.70
44431;DHT22;30135;47.866;-4.222;2022-12-10T02:12:10;2.80;82.70
44431;DHT22;30135;47.866;-4.222;2022-12-10T02:14:49;2.80;82.80
44431;DHT22;30135;47.866;-4.222;2022-12-10T02:17:41;2.80;82.70
44431;DHT22;30135;47.866;-4.222;2022-12-10T02:20:20;2.80;82.80
44431;DHT22;30135;47.866;-4.222;2022-12-10T02:23:16;2.80;82.70
44431;DHT22;30135;47.866;-4.222;2022-12-10T02:28:39;2.70;82.80
44431;DHT22;30135;47.866;-4.222;2022-12-10T02:31:13;2.70;82.80
44431;DHT22;30135;47.866;-4.222;2022-12-10T02:34:16;2.70;82.70
44431;DHT22;30135;47.866;-4.222;2022-12-10T02:37:44;2.70;82.60
44431;DHT22;30135;47.866;-4.222;2022-12-10T02:40:17;2.60;82.70
44431;DHT22;30135;47.866;-4.222;2022-12-10T02:42:48;2.60;82.80
44431;DHT22;30135;47.866;-4.222;2022-12-10T02:45:16;2.60;82.80
44431;DHT22;30135;47.866;-4.222;2022-12-10T02:47:43;2.60;82.80
44431;DHT22;30135;47.866;-4.222;2022-12-10T02:50:11;2.60;82.90
44431;DHT22;30135;47.866;-4.222;2022-12-10T02:52:38;2.60;82.90
44431;DHT22;30135;47.866;-4.222;2022-12-10T02:55:04;2.60;82.90
44431;DHT22;30135;47.866;-4.222;2022-12-10T02:58:03;2.60;82.90
44431;DHT22;30135;47.866;-4.222;2022-12-10T03:00:31;2.60;82.90
44431;DHT22;30135;47.866;-4.222;2022-12-10T03:03:25;2.60;82.80
44431;DHT22;30135;47.866;-4.222;2022-12-10T03:06:09;2.50;82.60
44431;DHT22;30135;47.866;-4.222;2022-12-10T03:08:41;2.50;82.60
44431;DHT22;30135;47.866;-4.222;2022-12-10T03:11:23;2.50;82.70
44431;DHT22;30135;47.866;-4.222;2022-12-10T03:14:11;2.50;82.80
44431;DHT22;30135;47.866;-4.222;2022-12-10T03:16:45;2.50;82.90
44431;DHT22;30135;47.866;-4.222;2022-12-10T03:19:18;2.40;82.90
44431;DHT22;30135;47.866;-4.222;2022-12-10T03:21:47;2.40;82.90
44431;DHT22;30135;47.866;-4.222;2022-12-10T03:24:16;2.40;82.90
44431;DHT22;30135;47.866;-4.222;2022-12-10T03:26:45;2.40;82.90
44431;DHT22;30135;47.866;-4.222;2022-12-10T03:29:19;2.40;83.00
44431;DHT22;30135;47.866;-4.222;2022-12-10T03:31:49;2.40;83.70
44431;DHT22;30135;47.866;-4.222;2022-12-10T03:34:17;2.40;83.00
44431;DHT22;30135;47.866;-4.222;2022-12-10T03:36:44;2.40;82.90
44431;DHT22;30135;47.866;-4.222;2022-12-10T03:39:11;2.30;82.80
44431;DHT22;30135;47.866;-4.222;2022-12-10T03:42:00;2.30;82.80
44431;DHT22;30135;47.866;-4.222;2022-12-10T03:44:32;2.30;82.90
44431;DHT22;30135;47.866;-4.222;2022-12-10T03:47:02;2.30;82.90
44431;DHT22;30135;47.866;-4.222;2022-12-10T03:49:29;2.30;83.00
44431;DHT22;30135;47.866;-4.222;2022-12-10T03:51:55;2.30;83.00
44431;DHT22;30135;47.866;-4.222;2022-12-10T03:54:21;2.30;83.10
44431;DHT22;30135;47.866;-4.222;2022-12-10T03:56:48;2.30;83.10
44431;DHT22;30135;47.866;-4.222;2022-12-10T03:59:14;2.30;83.00
44431;DHT22;30135;47.866;-4.222;2022-12-10T04:01:41;2.30;83.10
44431;DHT22;30135;47.866;-4.222;2022-12-10T04:04:37;2.30;83.00
44431;DHT22;30135;47.866;-4.222;2022-12-10T04:07:11;2.20;82.90
44431;DHT22;30135;47.866;-4.222;2022-12-10T04:10:24;2.20;83.00
44431;DHT22;30135;47.866;-4.222;2022-12-10T04:13:52;2.20;83.00
44431;DHT22;30135;47.866;-4.222;2022-12-10T04:19:54;2.20;83.10
44431;DHT22;30135;47.866;-4.222;2022-12-10T04:23:26;2.20;83.10
44431;DHT22;30135;47.866;-4.222;2022-12-10T04:26:49;2.10;83.10
44431;DHT22;30135;47.866;-4.222;2022-12-10T04:30:04;2.20;83.20
44431;DHT22;30135;47.866;-4.222;2022-12-10T04:33:42;2.10;83.10
44431;DHT22;30135;47.866;-4.222;2022-12-10T04:36:52;2.10;83.00
44431;DHT22;30135;47.866;-4.222;2022-12-10T04:40:28;2.10;82.90
44431;DHT22;30135;47.866;-4.222;2022-12-10T04:42:56;2.10;82.90
44431;DHT22;30135;47.866;-4.222;2022-12-10T04:45:27;2.10;83.00
44431;DHT22;30135;47.866;-4.222;2022-12-10T04:48:03;2.10;83.00
44431;DHT22;30135;47.866;-4.222;2022-12-10T04:50:57;2.10;83.10
44431;DHT22;30135;47.866;-4.222;2022-12-10T04:53:27;2.00;83.10
44431;DHT22;30135;47.866;-4.222;2022-12-10T04:56:19;2.10;83.10
44431;DHT22;30135;47.866;-4.222;2022-12-10T04:59:17;2.00;83.10
44431;DHT22;30135;47.866;-4.222;2022-12-10T05:02:05;2.00;83.10
44431;DHT22;30135;47.866;-4.222;2022-12-10T05:04:39;2.00;83.10
44431;DHT22;30135;47.866;-4.222;2022-12-10T05:08:12;2.00;83.10
44431;DHT22;30135;47.866;-4.222;2022-12-10T05:11:12;2.00;83.10
44431;DHT22;30135;47.866;-4.222;2022-12-10T05:13:57;2.00;83.10
44431;DHT22;30135;47.866;-4.222;2022-12-10T05:17:13;2.00;83.10
44431;DHT22;30135;47.866;-4.222;2022-12-10T05:19:48;2.00;83.00
44431;DHT22;30135;47.866;-4.222;2022-12-10T05:23:08;2.00;83.00
44431;DHT22;30135;47.866;-4.222;2022-12-10T05:26:25;2.00;83.00
44431;DHT22;30135;47.866;-4.222;2022-12-10T05:29:11;2.00;83.10
44431;DHT22;30135;47.866;-4.222;2022-12-10T05:32:01;2.00;83.10
44431;DHT22;30135;47.866;-4.222;2022-12-10T05:34:33;1.90;83.10
44431;DHT22;30135;47.866;-4.222;2022-12-10T05:37:07;2.00;83.10
44431;DHT22;30135;47.866;-4.222;2022-12-10T05:40:50;1.90;83.00
44431;DHT22;30135;47.866;-4.222;2022-12-10T05:43:31;1.90;83.00
44431;DHT22;30135;47.866;-4.222;2022-12-10T05:46:21;1.90;83.00
44431;DHT22;30135;47.866;-4.222;2022-12-10T05:49:03;1.90;83.00
44431;DHT22;30135;47.866;-4.222;2022-12-10T05:51:50;1.90;83.00
44431;DHT22;30135;47.866;-4.222;2022-12-10T05:55:08;1.90;83.80
44431;DHT22;30135;47.866;-4.222;2022-12-10T05:58:12;1.90;82.80
44431;DHT22;30135;47.866;-4.222;2022-12-10T06:00:47;1.90;82.90
44431;DHT22;30135;47.866;-4.222;2022-12-10T06:03:50;1.90;83.00
44431;DHT22;30135;47.866;-4.222;2022-12-10T06:06:39;1.90;83.00
44431;DHT22;30135;47.866;-4.222;2022-12-10T06:09:41;1.90;83.00
44431;DHT22;30135;47.866;-4.222;2022-12-10T06:12:33;1.90;83.10
44431;DHT22;30135;47.866;-4.222;2022-12-10T06:15:07;1.90;83.20
44431;DHT22;30135;47.866;-4.222;2022-12-10T06:18:05;1.90;83.30
44431;DHT22;30135;47.866;-4.222;2022-12-10T06:21:17;1.90;83.40
44431;DHT22;30135;47.866;-4.222;2022-12-10T06:24:47;1.90;83.40
44431;DHT22;30135;47.866;-4.222;2022-12-10T06:27:24;1.90;83.50
44431;DHT22;30135;47.866;-4.222;2022-12-10T06:30:17;1.90;83.50
44431;DHT22;30135;47.866;-4.222;2022-12-10T06:33:22;1.90;83.60
44431;DHT22;30135;47.866;-4.222;2022-12-10T06:36:19;1.90;83.70
44431;DHT22;30135;47.866;-4.222;2022-12-10T06:38:59;1.90;83.70
44431;DHT22;30135;47.866;-4.222;2022-12-10T06:41:49;2.00;83.80
44431;DHT22;30135;47.866;-4.222;2022-12-10T06:44:32;2.00;83.80
44431;DHT22;30135;47.866;-4.222;2022-12-10T06:47:16;2.00;83.90
44431;DHT22;30135;47.866;-4.222;2022-12-10T06:49:48;2.00;83.90
44431;DHT22;30135;47.866;-4.222;2022-12-10T06:52:37;2.00;83.90
44431;DHT22;30135;47.866;-4.222;2022-12-10T06:55:51;2.00;83.90
44431;DHT22;30135;47.866;-4.222;2022-12-10T06:59:07;2.00;84.00
44431;DHT22;30135;47.866;-4.222;2022-12-10T07:02:11;2.00;83.90
44431;DHT22;30135;47.866;-4.222;2022-12-10T07:08:31;2.00;84.00
44431;DHT22;30135;47.866;-4.222;2022-12-10T07:11:19;2.00;84.00
44431;DHT22;30135;47.866;-4.222;2022-12-10T07:14:30;2.00;84.00
44431;DHT22;30135;47.866;-4.222;2022-12-10T07:17:15;2.10;84.20
44431;DHT22;30135;47.866;-4.222;2022-12-10T07:20:29;2.00;84.00
44431;DHT22;30135;47.866;-4.222;2022-12-10T07:23:39;2.10;84.10
44431;DHT22;30135;47.866;-4.222;2022-12-10T07:26:46;2.10;84.20
44431;DHT22;30135;47.866;-4.222;2022-12-10T07:29:25;2.10;84.30
44431;DHT22;30135;47.866;-4.222;2022-12-10T07:32:08;2.10;84.20
44431;DHT22;30135;47.866;-4.222;2022-12-10T07:35:10;2.10;84.30
44431;DHT22;30135;47.866;-4.222;2022-12-10T07:37:51;2.10;84.30
44431;DHT22;30135;47.866;-4.222;2022-12-10T07:40:25;2.10;84.30
44431;DHT22;30135;47.866;-4.222;2022-12-10T07:43:29;2.10;84.40
44431;DHT22;30135;47.866;-4.222;2022-12-10T07:46:35;2.10;84.50
44431;DHT22;30135;47.866;-4.222;2022-12-10T07:49:02;2.10;84.50
44431;DHT22;30135;47.866;-4.222;2022-12-10T07:51:45;2.10;84.50
44431;DHT22;30135;47.866;-4.222;2022-12-10T07:54:24;2.10;84.50
44431;DHT22;30135;47.866;-4.222;2022-12-10T07:56:55;2.10;84.50
44431;DHT22;30135;47.866;-4.222;2022-12-10T07:59:23;2.10;84.50
44431;DHT22;30135;47.866;-4.222;2022-12-10T08:01:55;2.10;84.50
44431;DHT22;30135;47.866;-4.222;2022-12-10T08:04:33;2.10;84.60
44431;DHT22;30135;47.866;-4.222;2022-12-10T08:07:07;2.10;84.60
44431;DHT22;30135;47.866;-4.222;2022-12-10T08:09:41;2.10;84.60
44431;DHT22;30135;47.866;-4.222;2022-12-10T08:12:13;2.10;84.60
44431;DHT22;30135;47.866;-4.222;2022-12-10T08:14:43;2.10;84.70
44431;DHT22;30135;47.866;-4.222;2022-12-10T08:17:12;2.10;84.70
44431;DHT22;30135;47.866;-4.222;2022-12-10T08:19:40;2.10;84.70
44431;DHT22;30135;47.866;-4.222;2022-12-10T08:22:11;2.10;84.80
44431;DHT22;30135;47.866;-4.222;2022-12-10T08:24:40;2.10;84.80
44431;DHT22;30135;47.866;-4.222;2022-12-10T08:27:08;2.10;84.90
44431;DHT22;30135;47.866;-4.222;2022-12-10T08:29:39;2.10;85.00
44431;DHT22;30135;47.866;-4.222;2022-12-10T08:32:08;2.20;85.10
44431;DHT22;30135;47.866;-4.222;2022-12-10T08:34:36;2.20;85.10
44431;DHT22;30135;47.866;-4.222;2022-12-10T08:37:06;2.20;85.10
44431;DHT22;30135;47.866;-4.222;2022-12-10T08:39:42;2.20;85.20
44431;DHT22;30135;47.866;-4.222;2022-12-10T08:42:19;2.20;85.20
44431;DHT22;30135;47.866;-4.222;2022-12-10T08:44:47;2.20;85.30
44431;DHT22;30135;47.866;-4.222;2022-12-10T08:47:14;2.30;85.40
44431;DHT22;30135;47.866;-4.222;2022-12-10T08:49:47;2.30;85.40
44431;DHT22;30135;47.866;-4.222;2022-12-10T08:52:18;2.40;85.50
44431;DHT22;30135;47.866;-4.222;2022-12-10T08:54:53;2.40;85.50
44431;DHT22;30135;47.866;-4.222;2022-12-10T08:57:25;2.40;85.50
44431;DHT22;30135;47.866;-4.222;2022-12-10T08:59:57;2.40;85.50
44431;DHT22;30135;47.866;-4.222;2022-12-10T09:02:24;2.40;85.60
44431;DHT22;30135;47.866;-4.222;2022-12-10T09:04:55;2.50;85.70
44431;DHT22;30135;47.866;-4.222;2022-12-10T09:07:23;2.50;85.70
44431;DHT22;30135;47.866;-4.222;2022-12-10T09:09:52;2.50;85.90
44431;DHT22;30135;47.866;-4.222;2022-12-10T09:12:22;2.50;85.80
44431;DHT22;30135;47.866;-4.222;2022-12-10T09:14:55;2.50;85.90
44431;DHT22;30135;47.866;-4.222;2022-12-10T09:17:22;2.50;85.80
44431;DHT22;30135;47.866;-4.222;2022-12-10T09:20:04;2.50;85.90
44431;DHT22;30135;47.866;-4.222;2022-12-10T09:22:34;2.60;86.00
44431;DHT22;30135;47.866;-4.222;2022-12-10T09:25:07;2.60;86.10
44431;DHT22;30135;47.866;-4.222;2022-12-10T09:27:44;2.60;86.10
44431;DHT22;30135;47.866;-4.222;2022-12-10T09:30:25;2.70;86.30
44431;DHT22;30135;47.866;-4.222;2022-12-10T09:33:08;2.70;86.30
44431;DHT22;30135;47.866;-4.222;2022-12-10T09:35:41;2.70;86.40
44431;DHT22;30135;47.866;-4.222;2022-12-10T09:38:09;2.80;86.50
44431;DHT22;30135;47.866;-4.222;2022-12-10T09:40:47;2.80;86.50
44431;DHT22;30135;47.866;-4.222;2022-12-10T09:52:21;2.90;86.80
44431;DHT22;30135;47.866;-4.222;2022-12-10T09:55:02;3.00;86.80
44431;DHT22;30135;47.866;-4.222;2022-12-10T09:57:48;3.00;86.80
44431;DHT22;30135;47.866;-4.222;2022-12-10T10:00:41;3.00;86.90
44431;DHT22;30135;47.866;-4.222;2022-12-10T10:03:13;3.10;87.10
44431;DHT22;30135;47.866;-4.222;2022-12-10T10:05:53;3.10;87.00
44431;DHT22;30135;47.866;-4.222;2022-12-10T10:08:27;3.20;87.10
44431;DHT22;30135;47.866;-4.222;2022-12-10T10:10:56;3.20;87.10
44431;DHT22;30135;47.866;-4.222;2022-12-10T10:13:39;3.20;87.10
44431;DHT22;30135;47.866;-4.222;2022-12-10T10:16:25;3.20;87.10
44431;DHT22;30135;47.866;-4.222;2022-12-10T10:18:59;3.30;87.30
44431;DHT22;30135;47.866;-4.222;2022-12-10T10:21:38;3.30;87.30
44431;DHT22;30135;47.866;-4.222;2022-12-10T10:24:06;3.40;87.50
44431;DHT22;30135;47.866;-4.222;2022-12-10T10:26:35;3.40;87.50
44431;DHT22;30135;47.866;-4.222;2022-12-10T10:29:05;3.40;87.50
44431;DHT22;30135;47.866;-4.222;2022-12-10T10:31:34;3.50;87.70
44431;DHT22;30135;47.866;-4.222;2022-12-10T10:34:12;3.50;87.70
44431;DHT22;30135;47.866;-4.222;2022-12-10T10:36:46;3.50;87.70
44431;DHT22;30135;47.866;-4.222;2022-12-10T10:41:42;3.60;87.80
44431;DHT22;30135;47.866;-4.222;2022-12-10T10:44:16;3.60;87.80
44431;DHT22;30135;47.866;-4.222;2022-12-10T10:46:53;3.60;87.90
44431;DHT22;30135;47.866;-4.222;2022-12-10T10:49:30;3.70;88.00
44431;DHT22;30135;47.866;-4.222;2022-12-10T10:52:20;3.70;88.10
44431;DHT22;30135;47.866;-4.222;2022-12-10T10:54:46;3.70;88.30
44431;DHT22;30135;47.866;-4.222;2022-12-10T10:57:32;3.80;88.40
44431;DHT22;30135;47.866;-4.222;2022-12-10T11:00:19;3.80;88.50
44431;DHT22;30135;47.866;-4.222;2022-12-10T11:02:48;3.90;88.70
44431;DHT22;30135;47.866;-4.222;2022-12-10T11:05:24;3.90;88.80
44431;DHT22;30135;47.866;-4.222;2022-12-10T11:08:00;3.90;88.80
44431;DHT22;30135;47.866;-4.222;2022-12-10T11:10:29;4.00;89.00
44431;DHT22;30135;47.866;-4.222;2022-12-10T11:15:37;4.10;88.90
44431;DHT22;30135;47.866;-4.222;2022-12-10T11:21:00;4.10;89.00
44431;DHT22;30135;47.866;-4.222;2022-12-10T11:23:29;4.20;89.10
44431;DHT22;30135;47.866;-4.222;2022-12-10T11:32:17;4.30;89.30
44431;DHT22;30135;47.866;-4.222;2022-12-10T11:35:05;4.30;89.30
44431;DHT22;30135;47.866;-4.222;2022-12-10T11:40:47;4.40;89.40
44431;DHT22;30135;47.866;-4.222;2022-12-10T11:49:52;4.50;89.50
44431;DHT22;30135;47.866;-4.222;2022-12-10T11:52:48;4.60;89.60
44431;DHT22;30135;47.866;-4.222;2022-12-10T11:58:23;4.60;89.50
44431;DHT22;30135;47.866;-4.222;2022-12-10T12:13:35;4.80;89.80
44431;DHT22;30135;47.866;-4.222;2022-12-10T12:16:26;4.80;90.00
44431;DHT22;30135;47.866;-4.222;2022-12-10T12:19:03;4.90;90.00
44431;DHT22;30135;47.866;-4.222;2022-12-10T12:21:30;4.90;90.00
44431;DHT22;30135;47.866;-4.222;2022-12-10T12:24:02;4.90;90.10
44431;DHT22;30135;47.866;-4.222;2022-12-10T12:26:41;5.00;90.10
44431;DHT22;30135;47.866;-4.222;2022-12-10T12:29:27;5.00;90.20
44431;DHT22;30135;47.866;-4.222;2022-12-10T12:32:36;5.10;90.30
44431;DHT22;30135;47.866;-4.222;2022-12-10T12:35:39;5.10;90.40
44431;DHT22;30135;47.866;-4.222;2022-12-10T12:56:02;5.60;90.90
44431;DHT22;30135;47.866;-4.222;2022-12-10T13:05:36;5.70;90.70
44431;DHT22;30135;47.866;-4.222;2022-12-10T13:08:25;5.80;90.80
44431;DHT22;30135;47.866;-4.222;2022-12-10T13:14:28;5.90;90.80
44431;DHT22;30135;47.866;-4.222;2022-12-10T13:17:34;5.90;90.90
44431;DHT22;30135;47.866;-4.222;2022-12-10T13:20:48;6.00;91.10
44431;DHT22;30135;47.866;-4.222;2022-12-10T13:23:32;6.00;91.00
44431;DHT22;30135;47.866;-4.222;2022-12-10T13:29:56;6.10;91.50
44431;DHT22;30135;47.866;-4.222;2022-12-10T13:32:46;6.20;91.20
44431;DHT22;30135;47.866;-4.222;2022-12-10T13:35:31;6.20;91.20
44431;DHT22;30135;47.866;-4.222;2022-12-10T13:38:17;6.20;91.10
44431;DHT22;30135;47.866;-4.222;2022-12-10T13:41:06;6.30;91.20
44431;DHT22;30135;47.866;-4.222;2022-12-10T13:44:49;6.30;91.30
44431;DHT22;30135;47.866;-4.222;2022-12-10T13:50:35;6.30;91.20
44431;DHT22;30135;47.866;-4.222;2022-12-10T13:53:19;6.30;91.30
44431;DHT22;30135;47.866;-4.222;2022-12-10T13:56:26;6.30;91.60
44431;DHT22;30135;47.866;-4.222;2022-12-10T13:59:20;6.30;91.30
44431;DHT22;30135;47.866;-4.222;2022-12-10T14:02:38;6.40;91.50
44431;DHT22;30135;47.866;-4.222;2022-12-10T14:08:18;6.30;91.40
44431;DHT22;30135;47.866;-4.222;2022-12-10T14:10:48;6.40;91.50
44431;DHT22;30135;47.866;-4.222;2022-12-10T14:13:24;6.40;91.50
44431;DHT22;30135;47.866;-4.222;2022-12-10T14:16:11;6.40;91.60
44431;DHT22;30135;47.866;-4.222;2022-12-10T14:18:45;6.40;91.70
44431;DHT22;30135;47.866;-4.222;2022-12-10T14:21:19;6.40;91.60
44431;DHT22;30135;47.866;-4.222;2022-12-10T14:24:25;6.40;91.60
44431;DHT22;30135;47.866;-4.222;2022-12-10T14:27:02;6.40;91.70
44431;DHT22;30135;47.866;-4.222;2022-12-10T14:29:43;6.40;91.80
44431;DHT22;30135;47.866;-4.222;2022-12-10T14:32:20;6.40;91.90
44431;DHT22;30135;47.866;-4.222;2022-12-10T14:34:58;6.40;91.90
44431;DHT22;30135;47.866;-4.222;2022-12-10T14:37:59;6.40;92.00
44431;DHT22;30135;47.866;-4.222;2022-12-10T14:40:42;6.40;92.00
44431;DHT22;30135;47.866;-4.222;2022-12-10T14:43:14;6.50;92.10
44431;DHT22;30135;47.866;-4.222;2022-12-10T14:45:50;6.50;92.10
44431;DHT22;30135;47.866;-4.222;2022-12-10T14:48:22;6.50;92.20
44431;DHT22;30135;47.866;-4.222;2022-12-10T14:51:02;6.50;92.20
44431;DHT22;30135;47.866;-4.222;2022-12-10T14:53:32;6.50;92.30
44431;DHT22;30135;47.866;-4.222;2022-12-10T14:56:05;6.50;92.30
44431;DHT22;30135;47.866;-4.222;2022-12-10T14:58:42;6.50;92.30
44431;DHT22;30135;47.866;-4.222;2022-12-10T15:01:30;6.50;92.40
44431;DHT22;30135;47.866;-4.222;2022-12-10T15:04:03;6.50;92.50
44431;DHT22;30135;47.866;-4.222;2022-12-10T15:06:35;6.50;92.50
44431;DHT22;30135;47.866;-4.222;2022-12-10T15:09:04;6.50;92.50
44431;DHT22;30135;47.866;-4.222;2022-12-10T15:11:35;6.50;92.50
44431;DHT22;30135;47.866;-4.222;2022-12-10T15:14:15;6.50;92.50
44431;DHT22;30135;47.866;-4.222;2022-12-10T15:16:47;6.60;92.60
44431;DHT22;30135;47.866;-4.222;2022-12-10T15:19:32;6.50;92.60
44431;DHT22;30135;47.866;-4.222;2022-12-10T15:22:18;6.60;92.60
44431;DHT22;30135;47.866;-4.222;2022-12-10T15:24:48;6.60;92.90
44431;DHT22;30135;47.866;-4.222;2022-12-10T15:27:23;6.60;92.50
44431;DHT22;30135;47.866;-4.222;2022-12-10T15:29:53;6.60;92.40
44431;DHT22;30135;47.866;-4.222;2022-12-10T15:32:26;6.60;92.40
44431;DHT22;30135;47.866;-4.222;2022-12-10T15:34:59;6.60;92.40
44431;DHT22;30135;47.866;-4.222;2022-12-10T15:37:35;6.60;92.30
44431;DHT22;30135;47.866;-4.222;2022-12-10T15:40:21;6.60;92.30
44431;DHT22;30135;47.866;-4.222;2022-12-10T15:42:49;6.60;92.60
44431;DHT22;30135;47.866;-4.222;2022-12-10T15:45:28;6.60;92.20
44431;DHT22;30135;47.866;-4.222;2022-12-10T15:48:09;6.60;92.20
44431;DHT22;30135;47.866;-4.222;2022-12-10T15:50:40;6.50;92.10
44431;DHT22;30135;47.866;-4.222;2022-12-10T15:53:26;6.60;92.10
44431;DHT22;30135;47.866;-4.222;2022-12-10T15:56:10;6.50;92.10
44431;DHT22;30135;47.866;-4.222;2022-12-10T15:58:41;6.50;92.00
44431;DHT22;30135;47.866;-4.222;2022-12-10T16:01:13;6.50;92.00
44431;DHT22;30135;47.866;-4.222;2022-12-10T16:03:43;6.50;92.00
44431;DHT22;30135;47.866;-4.222;2022-12-10T16:06:16;6.50;92.00
44431;DHT22;30135;47.866;-4.222;2022-12-10T16:08:47;6.50;92.10
44431;DHT22;30135;47.866;-4.222;2022-12-10T16:11:24;6.50;92.00
44431;DHT22;30135;47.866;-4.222;2022-12-10T16:13:55;6.50;92.00
44431;DHT22;30135;47.866;-4.222;2022-12-10T16:16:25;6.50;92.00
44431;DHT22;30135;47.866;-4.222;2022-12-10T16:18:53;6.50;91.90
44431;DHT22;30135;47.866;-4.222;2022-12-10T16:21:20;6.50;91.90
44431;DHT22;30135;47.866;-4.222;2022-12-10T16:23:46;6.40;91.80
44431;DHT22;30135;47.866;-4.222;2022-12-10T16:26:32;6.40;91.90
44431;DHT22;30135;47.866;-4.222;2022-12-10T16:28:58;6.40;91.90
44431;DHT22;30135;47.866;-4.222;2022-12-10T16:31:24;6.40;91.80
44431;DHT22;30135;47.866;-4.222;2022-12-10T16:33:50;6.40;91.80
44431;DHT22;30135;47.866;-4.222;2022-12-10T16:36:18;6.40;91.80
44431;DHT22;30135;47.866;-4.222;2022-12-10T16:38:44;6.40;91.80
44431;DHT22;30135;47.866;-4.222;2022-12-10T16:41:19;6.40;91.80
44431;DHT22;30135;47.866;-4.222;2022-12-10T16:43:47;6.40;91.70
44431;DHT22;30135;47.866;-4.222;2022-12-10T16:46:14;6.30;91.60
44431;DHT22;30135;47.866;-4.222;2022-12-10T16:48:40;6.30;91.60
44431;DHT22;30135;47.866;-4.222;2022-12-10T16:53:55;6.30;91.80
44431;DHT22;30135;47.866;-4.222;2022-12-10T16:56:22;6.20;91.40
44431;DHT22;30135;47.866;-4.222;2022-12-10T16:58:48;6.20;91.30
44431;DHT22;30135;47.866;-4.222;2022-12-10T17:01:18;6.10;91.30
44431;DHT22;30135;47.866;-4.222;2022-12-10T17:03:47;6.10;91.20
44431;DHT22;30135;47.866;-4.222;2022-12-10T17:06:14;6.10;91.30
44431;DHT22;30135;47.866;-4.222;2022-12-10T17:08:40;6.00;91.20
44431;DHT22;30135;47.866;-4.222;2022-12-10T17:11:27;6.00;91.20
44431;DHT22;30135;47.866;-4.222;2022-12-10T17:14:25;6.00;91.20
44431;DHT22;30135;47.866;-4.222;2022-12-10T17:16:55;6.00;91.20
44431;DHT22;30135;47.866;-4.222;2022-12-10T17:19:23;5.90;91.10
44431;DHT22;30135;47.866;-4.222;2022-12-10T17:21:51;5.80;91.10
44431;DHT22;30135;47.866;-4.222;2022-12-10T17:24:17;5.80;91.10
44431;DHT22;30135;47.866;-4.222;2022-12-10T17:26:45;5.80;91.10
44431;DHT22;30135;47.866;-4.222;2022-12-10T17:29:29;5.80;91.20
44431;DHT22;30135;47.866;-4.222;2022-12-10T17:31:57;5.70;91.10
44431;DHT22;30135;47.866;-4.222;2022-12-10T17:34:23;5.70;91.10
44431;DHT22;30135;47.866;-4.222;2022-12-10T17:36:51;5.70;91.10
44431;DHT22;30135;47.866;-4.222;2022-12-10T17:39:20;5.70;91.10
44431;DHT22;30135;47.866;-4.222;2022-12-10T17:41:47;5.70;91.10
44431;DHT22;30135;47.866;-4.222;2022-12-10T17:44:13;5.60;91.10
44431;DHT22;30135;47.866;-4.222;2022-12-10T17:46:39;5.60;91.00
44431;DHT22;30135;47.866;-4.222;2022-12-10T17:49:05;5.60;91.00
44431;DHT22;30135;47.866;-4.222;2022-12-10T17:51:31;5.60;91.00
44431;DHT22;30135;47.866;-4.222;2022-12-10T17:53:58;5.50;90.90
44431;DHT22;30135;47.866;-4.222;2022-12-10T17:56:26;5.50;90.90
44431;DHT22;30135;47.866;-4.222;2022-12-10T17:58:56;5.50;90.90
44431;DHT22;30135;47.866;-4.222;2022-12-10T18:01:31;5.50;90.90
44431;DHT22;30135;47.866;-4.222;2022-12-10T18:03:57;5.40;90.80
44431;DHT22;30135;47.866;-4.222;2022-12-10T18:06:28;5.40;90.90
44431;DHT22;30135;47.866;-4.222;2022-12-10T18:08:58;5.40;90.90
44431;DHT22;30135;47.866;-4.222;2022-12-10T18:11:31;5.40;90.80
44431;DHT22;30135;47.866;-4.222;2022-12-10T18:13:59;5.40;90.80
44431;DHT22;30135;47.866;-4.222;2022-12-10T18:16:30;5.30;90.80
44431;DHT22;30135;47.866;-4.222;2022-12-10T18:18:59;5.30;90.80
44431;DHT22;30135;47.866;-4.222;2022-12-10T18:21:27;5.30;90.80
44431;DHT22;30135;47.866;-4.222;2022-12-10T18:23:53;5.30;90.80
44431;DHT22;30135;47.866;-4.222;2022-12-10T18:26:22;5.20;90.80
44431;DHT22;30135;47.866;-4.222;2022-12-10T18:28:57;5.20;90.80
44431;DHT22;30135;47.866;-4.222;2022-12-10T18:31:31;5.20;90.70